Entebbe, Uganda
Current Conditions -  °F | °C
As of 9:32 PM on Sunday 21 Dec 2014 (Local Time) from KQUD Reporting Station
Broken Clouds Broken Clouds  
Wind Chill: 22°   Ceiling: 14000
Heat Index: 22°   Visibility: 10mi
Dew Point: 18°   Wind: 0mph
Humidity: 78%   Direction: NA
Pressure: 30.18"   Gusts: NA
Location:  0.06°N, 32.46°E
Report Text: KQUD 211832Z AUTO 00000KT 10SM BKN140 22/18 A3018 RMK AO2 SLP172 TSNO $
Loading
Personal Weather Stations






























Interactive Weather Map New forecast layout! Learn more

10-Day Weather Forecast

Advertisements
Track Severe Weather on mobile